To NAV CANADA Home Page Login to a new session Search on AWWS site Disclaimer Vers la page française équivalente Tips FAQ What's new on the site To the Forecasts and Observations / NOTAM section To "File a Flight Plan" website Publications and other links Update of the User's profile FIC Telephone Numbers My Weather Data Folder Route Weather Data Regional Weather Data Local Weather Data To the Forecasts and Observations / NOTAM section
Request Generated 11/13/2018 at 18:28:56 UTC . Weather information available at that time is displayed.

METAR/TAF

WATSON LAKE/YT    

METAR CYQH 131800Z VRB02KT 30SM SCT068 BKN140 M12/M14 A2962 RMK AC3AC2 CLIMAT -7.1/-13.1/0.0 SLP081=
METAR CYQH 131700Z VRB02KT 30SM SCT068 M12/M13 A2965 RMK AC4 SLP090=
METAR CYQH 131600Z 00000KT 20SM BKN062 M12/M13 A2969 RMK SC5 SLP103=

TAF CYQH 131741Z 1318/1406 VRB03KT P6SM BKN100 OVC180
FM132000 VRB03KT P6SM SCT030 OVC070 TEMPO 1320/1324 2SM -SN
SCT020 OVC030 PROB30 1320/1323 5SM -FZRA BR
FM140000 VRB03KT P6SM SCT030 BKN080 TEMPO 1400/1406 5SM -SN BR
BKN030 OVC050
RMK NXT FCST BY 140000Z=
Your time UTC time
Weather data provided by Environment Canada and NAV CANADA